Time;durP1;ratioP1;P1;durP2;ratioP2;P2;SDS_P1;SDS_P2;PMS_P1;PMS_P2;Temp;Humidity;BMP_temperature;BMP_pressure;BME280_temperature;BME280_humidity;BME280_pressure;Samples;Min_cycle;Max_cycle;Signal;HPM_P1;HPM_P2
2021/07/31 00:01:06;;;;;;;4.93;3.30;;;;;;;;;;4992092;28;20770;-69
2021/07/31 00:03:32;;;;;;;5.53;3.20;;;;;;;;;;4993181;28;20463;-69
2021/07/31 00:05:58;;;;;;;4.97;3.13;;;;;;;;;;4987658;28;20429;-69
2021/07/31 00:08:24;;;;;;;5.73;4.33;;;;;;;;;;4974154;28;20430;-69
2021/07/31 00:10:51;;;;;;;7.17;4.30;;;;;;;;;;4973951;28;20508;-69
2021/07/31 00:13:17;;;;;;;6.07;3.90;;;;;;;;;;4974189;28;20451;-69
2021/07/31 00:15:43;;;;;;;5.00;3.80;;;;;;;;;;4973980;28;20433;-69
2021/07/31 00:18:09;;;;;;;7.90;3.53;;;;;;;;;;4974103;28;20433;-69
2021/07/31 00:20:35;;;;;;;4.03;3.63;;;;;;;;;;4978182;28;20443;-69
2021/07/31 00:23:01;;;;;;;7.87;4.40;;;;;;;;;;4997006;28;20455;-69
2021/07/31 00:25:27;;;;;;;6.13;3.70;;;;;;;;;;4991231;28;20424;-69
2021/07/31 00:27:53;;;;;;;5.13;3.77;;;;;;;;;;4997547;28;20535;-69
2021/07/31 00:30:23;;;;;;;4.73;3.47;;;;;;;;;;4995202;28;20495;-69
2021/07/31 00:32:50;;;;;;;6.13;3.27;;;;;;;;;;4977934;28;20406;-69
2021/07/31 00:35:16;;;;;;;6.80;4.27;;;;;;;;;;4977878;28;20413;-69
2021/07/31 00:37:42;;;;;;;6.43;3.90;;;;;;;;;;4978114;28;20751;-69
2021/07/31 00:40:08;;;;;;;4.27;3.47;;;;;;;;;;4977430;28;20846;-68
2021/07/31 00:42:37;;;;;;;5.90;3.83;;;;;;;;;;4997089;28;20455;-69
2021/07/31 00:45:03;;;;;;;5.10;3.83;;;;;;;;;;4997293;28;20412;-69
2021/07/31 00:47:29;;;;;;;8.53;4.90;;;;;;;;;;4996163;28;20435;-69
2021/07/31 00:49:55;;;;;;;6.47;4.97;;;;;;;;;;4997114;28;20417;-69
2021/07/31 00:52:21;;;;;;;8.87;6.40;;;;;;;;;;4979620;28;20831;-69
2021/07/31 00:54:47;;;;;;;5.93;4.00;;;;;;;;;;4977889;28;20502;-69
2021/07/31 00:57:15;;;;;;;8.33;4.70;;;;;;;;;;4993362;28;20490;-69
2021/07/31 00:59:41;;;;;;;5.53;3.60;;;;;;;;;;4995970;28;20550;-69
2021/07/31 01:02:07;;;;;;;5.37;3.90;;;;;;;;;;4981815;28;20604;-69
2021/07/31 01:04:33;;;;;;;4.40;3.53;;;;;;;;;;4979283;28;20440;-69
2021/07/31 01:06:59;;;;;;;5.70;4.13;;;;;;;;;;4987875;28;20421;-69
2021/07/31 01:09:25;;;;;;;5.80;3.73;;;;;;;;;;4997090;28;20788;-69
2021/07/31 01:11:51;;;;;;;5.00;3.50;;;;;;;;;;4995880;28;20428;-68
2021/07/31 01:14:17;;;;;;;4.27;3.40;;;;;;;;;;4996626;28;20495;-68
2021/07/31 01:16:44;;;;;;;6.40;4.10;;;;;;;;;;4995959;28;20428;-68
2021/07/31 01:19:10;;;;;;;4.70;3.60;;;;;;;;;;4996451;28;20475;-69
2021/07/31 01:21:36;;;;;;;4.97;3.60;;;;;;;;;;4995269;28;20899;-68
2021/07/31 01:24:03;;;;;;;5.07;3.57;;;;;;;;;;4996559;28;20404;-68
2021/07/31 01:26:29;;;;;;;7.23;3.47;;;;;;;;;;4991238;28;20500;-68
2021/07/31 01:28:55;;;;;;;6.03;4.00;;;;;;;;;;4977044;28;20449;-68
2021/07/31 01:31:21;;;;;;;4.60;3.80;;;;;;;;;;4979312;28;21020;-68
2021/07/31 01:33:47;;;;;;;5.63;3.60;;;;;;;;;;4996194;28;20504;-68
2021/07/31 01:36:13;;;;;;;5.53;3.73;;;;;;;;;;4986276;28;20508;-68
2021/07/31 01:38:39;;;;;;;4.23;3.23;;;;;;;;;;5002214;28;20596;-69
2021/07/31 01:41:05;;;;;;;4.17;3.23;;;;;;;;;;5014454;28;20880;-69
2021/07/31 01:43:31;;;;;;;3.80;3.40;;;;;;;;;;4994017;28;20467;-68
2021/07/31 01:45:57;;;;;;;11.20;4.30;;;;;;;;;;4996033;28;20412;-68
2021/07/31 01:48:23;;;;;;;4.60;3.87;;;;;;;;;;4994773;28;20965;-68
2021/07/31 01:50:49;;;;;;;8.37;4.10;;;;;;;;;;4995862;28;20920;-69
2021/07/31 01:53:15;;;;;;;5.00;3.43;;;;;;;;;;4994980;28;20424;-69
2021/07/31 01:55:41;;;;;;;4.20;3.10;;;;;;;;;;4996301;28;20424;-68
2021/07/31 01:58:07;;;;;;;6.23;3.10;;;;;;;;;;4979005;28;20504;-69
2021/07/31 02:00:33;;;;;;;6.63;3.80;;;;;;;;;;4976590;28;20414;-68
2021/07/31 02:02:59;;;;;;;5.20;3.97;;;;;;;;;;4990595;28;20463;-68
2021/07/31 02:05:25;;;;;;;5.20;3.20;;;;;;;;;;4995666;28;20886;-68
2021/07/31 02:07:51;;;;;;;4.07;3.43;;;;;;;;;;4981572;28;20433;-69
2021/07/31 02:10:17;;;;;;;6.10;3.60;;;;;;;;;;4976129;28;20425;-68
2021/07/31 02:12:43;;;;;;;4.63;3.60;;;;;;;;;;4986512;28;20837;-69
2021/07/31 02:15:09;;;;;;;9.50;5.70;;;;;;;;;;4995444;28;20417;-69
2021/07/31 02:17:35;;;;;;;5.53;3.20;;;;;;;;;;4984009;28;20484;-69
2021/07/31 02:20:01;;;;;;;4.43;3.60;;;;;;;;;;4975844;28;20818;-69
2021/07/31 02:22:27;;;;;;;5.23;4.50;;;;;;;;;;4985261;28;20828;-68
2021/07/31 02:24:53;;;;;;;6.53;3.97;;;;;;;;;;4995382;28;20409;-68
2021/07/31 02:27:19;;;;;;;5.50;2.97;;;;;;;;;;4994367;28;20879;-68
2021/07/31 02:29:45;;;;;;;4.63;3.70;;;;;;;;;;4994956;28;20417;-68
2021/07/31 02:32:11;;;;;;;8.13;3.10;;;;;;;;;;4987363;28;20938;-68
2021/07/31 02:34:37;;;;;;;4.23;3.40;;;;;;;;;;4975719;28;20501;-68
2021/07/31 02:37:03;;;;;;;4.87;3.30;;;;;;;;;;4981374;28;20435;-68
2021/07/31 02:39:29;;;;;;;4.90;3.23;;;;;;;;;;4978315;28;20901;-68
2021/07/31 02:41:55;;;;;;;7.03;4.20;;;;;;;;;;4977544;28;20453;-68
2021/07/31 02:44:21;;;;;;;5.83;3.77;;;;;;;;;;4985958;28;20439;-68
2021/07/31 02:46:47;;;;;;;4.70;3.30;;;;;;;;;;4987629;28;20422;-68
2021/07/31 02:49:13;;;;;;;4.07;3.67;;;;;;;;;;4975355;28;20969;-68
2021/07/31 02:51:39;;;;;;;3.97;3.30;;;;;;;;;;4990952;28;20436;-68
2021/07/31 02:54:05;;;;;;;5.70;3.57;;;;;;;;;;4975184;28;20429;-68
2021/07/31 02:56:32;;;;;;;4.53;4.13;;;;;;;;;;4990450;28;20500;-68
2021/07/31 02:58:58;;;;;;;5.40;4.10;;;;;;;;;;4994027;28;20967;-68
2021/07/31 03:01:24;;;;;;;4.57;3.70;;;;;;;;;;4994333;28;20406;-68
2021/07/31 03:03:50;;;;;;;5.60;3.67;;;;;;;;;;4991968;28;20416;-68
2021/07/31 03:06:16;;;;;;;4.23;3.37;;;;;;;;;;4994426;28;20483;-69
2021/07/31 03:08:42;;;;;;;5.30;3.73;;;;;;;;;;4975947;28;20832;-68
2021/07/31 03:11:08;;;;;;;5.27;3.93;;;;;;;;;;4975084;28;20398;-68
2021/07/31 03:13:35;;;;;;;5.67;3.60;;;;;;;;;;4990336;28;20782;-68
2021/07/31 03:16:01;;;;;;;5.97;4.57;;;;;;;;;;4994651;28;20400;-68
2021/07/31 03:18:27;;;;;;;7.00;4.10;;;;;;;;;;4993002;28;20967;-68
2021/07/31 03:20:54;;;;;;;4.33;3.70;;;;;;;;;;4993323;28;20969;-68
2021/07/31 03:23:21;;;;;;;4.57;3.90;;;;;;;;;;4982922;28;20460;-68
2021/07/31 03:25:48;;;;;;;5.40;3.70;;;;;;;;;;4974660;28;20556;-67
2021/07/31 03:28:14;;;;;;;5.50;3.80;;;;;;;;;;4980480;28;20809;-68
2021/07/31 03:30:44;;;;;;;5.57;4.07;;;;;;;;;;4994046;28;20818;-68
2021/07/31 03:33:10;;;;;;;6.07;3.80;;;;;;;;;;4981662;28;20436;-68
2021/07/31 03:35:37;;;;;;;5.03;3.40;;;;;;;;;;4974909;28;20489;-68
2021/07/31 03:38:03;;;;;;;6.80;4.03;;;;;;;;;;4984412;28;20439;-68
2021/07/31 03:40:29;;;;;;;10.77;5.20;;;;;;;;;;4994033;28;20427;-68
2021/07/31 03:42:56;;;;;;;5.50;4.03;;;;;;;;;;4993245;28;20498;-68
2021/07/31 03:45:22;;;;;;;7.37;4.47;;;;;;;;;;4993890;28;20404;-68
2021/07/31 03:47:48;;;;;;;6.30;4.03;;;;;;;;;;4992947;28;20432;-68
2021/07/31 03:50:14;;;;;;;4.60;3.73;;;;;;;;;;4993974;28;20429;-68
2021/07/31 03:52:40;;;;;;;4.77;4.20;;;;;;;;;;4986866;28;20962;-68
2021/07/31 03:55:06;;;;;;;7.00;4.70;;;;;;;;;;4974417;28;20409;-68
2021/07/31 03:57:33;;;;;;;9.53;5.40;;;;;;;;;;4977359;28;20434;-68
2021/07/31 03:59:59;;;;;;;6.27;5.20;;;;;;;;;;4993796;28;20439;-68
2021/07/31 04:02:25;;;;;;;6.30;4.67;;;;;;;;;;4989207;28;20471;-68
2021/07/31 04:04:51;;;;;;;6.20;4.20;;;;;;;;;;4974385;28;20899;-68
2021/07/31 04:07:17;;;;;;;6.67;4.30;;;;;;;;;;4976543;28;20438;-68
2021/07/31 04:09:43;;;;;;;4.53;4.00;;;;;;;;;;4993630;28;20495;-68
2021/07/31 04:12:09;;;;;;;5.70;4.33;;;;;;;;;;4991857;28;20511;-69
2021/07/31 04:14:35;;;;;;;5.10;3.70;;;;;;;;;;4993732;28;20400;-68
2021/07/31 04:17:02;;;;;;;5.50;3.93;;;;;;;;;;4993005;28;20410;-68
2021/07/31 04:19:28;;;;;;;4.97;3.77;;;;;;;;;;4993438;28;20510;-68
2021/07/31 04:21:56;;;;;;;6.83;3.90;;;;;;;;;;4993596;28;20451;-68
2021/07/31 04:24:23;;;;;;;5.40;4.07;;;;;;;;;;4991428;28;20483;-68
2021/07/31 04:26:49;;;;;;;6.30;4.03;;;;;;;;;;4993897;28;20711;-68
2021/07/31 04:29:15;;;;;;;5.00;3.53;;;;;;;;;;4975273;28;20460;-68
2021/07/31 04:31:41;;;;;;;5.73;4.37;;;;;;;;;;4974154;28;20541;-68
2021/07/31 04:34:07;;;;;;;5.23;4.23;;;;;;;;;;4989952;28;20436;-68
2021/07/31 04:36:33;;;;;;;4.50;3.80;;;;;;;;;;4993735;28;20413;-68
2021/07/31 04:39:00;;;;;;;5.57;3.77;;;;;;;;;;4992899;28;20448;-68
2021/07/31 04:41:26;;;;;;;4.80;3.73;;;;;;;;;;4993409;28;20396;-68
2021/07/31 04:43:52;;;;;;;6.37;3.93;;;;;;;;;;4979166;28;20432;-69
2021/07/31 04:46:18;;;;;;;7.20;4.00;;;;;;;;;;4993608;28;20401;-68
2021/07/31 04:48:44;;;;;;;8.50;3.90;;;;;;;;;;4980114;28;20648;-68
2021/07/31 04:51:10;;;;;;;4.30;3.60;;;;;;;;;;4989014;28;20454;-68
2021/07/31 04:53:36;;;;;;;5.23;3.73;;;;;;;;;;5000055;28;20439;-68
2021/07/31 04:56:02;;;;;;;5.37;3.70;;;;;;;;;;4993375;28;20440;-68
2021/07/31 04:58:28;;;;;;;5.83;3.87;;;;;;;;;;4992445;28;20452;-68
2021/07/31 05:00:55;;;;;;;4.87;4.03;;;;;;;;;;4993504;28;20821;-68
2021/07/31 05:03:21;;;;;;;5.00;3.50;;;;;;;;;;4982495;28;20463;-68
2021/07/31 05:05:48;;;;;;;4.60;3.67;;;;;;;;;;4980714;28;20420;-68
2021/07/31 05:08:14;;;;;;;5.23;3.97;;;;;;;;;;4986093;28;20431;-69
2021/07/31 05:10:40;;;;;;;5.53;4.20;;;;;;;;;;4977551;28;20401;-68
2021/07/31 05:13:06;;;;;;;5.33;3.50;;;;;;;;;;4983686;28;20471;-69
2021/07/31 05:15:32;;;;;;;4.20;3.37;;;;;;;;;;4997123;28;20412;-68
2021/07/31 05:17:58;;;;;;;5.20;3.80;;;;;;;;;;4995178;28;20527;-68
2021/07/31 05:20:24;;;;;;;5.43;3.67;;;;;;;;;;4996930;28;20424;-68
2021/07/31 05:22:51;;;;;;;5.10;3.20;;;;;;;;;;4992046;28;20485;-68
2021/07/31 05:25:17;;;;;;;5.37;3.80;;;;;;;;;;4977622;28;20405;-68
2021/07/31 05:27:43;;;;;;;5.97;3.70;;;;;;;;;;4977418;28;20498;-68
2021/07/31 05:30:09;;;;;;;4.80;3.37;;;;;;;;;;4992085;28;20520;-68
2021/07/31 05:32:35;;;;;;;6.50;4.17;;;;;;;;;;4978393;28;20787;-68
2021/07/31 05:35:01;;;;;;;4.30;3.30;;;;;;;;;;4996765;28;20420;-68
2021/07/31 05:37:28;;;;;;;4.30;3.43;;;;;;;;;;4995287;28;20408;-68
2021/07/31 05:39:54;;;;;;;3.80;3.07;;;;;;;;;;4976864;28;20440;-68
2021/07/31 05:42:20;;;;;;;7.30;4.17;;;;;;;;;;4982456;28;20452;-68
2021/07/31 05:44:46;;;;;;;4.47;3.40;;;;;;;;;;4995333;28;20452;-68
2021/07/31 05:47:12;;;;;;;5.30;3.80;;;;;;;;;;4996405;28;20471;-68
2021/07/31 05:49:38;;;;;;;4.93;3.90;;;;;;;;;;4995145;28;20492;-68
2021/07/31 05:52:05;;;;;;;5.00;3.67;;;;;;;;;;4995462;28;20506;-68
2021/07/31 05:54:31;;;;;;;4.40;3.13;;;;;;;;;;4995222;28;20467;-68
2021/07/31 05:56:57;;;;;;;5.87;3.63;;;;;;;;;;4996520;28;20761;-68
2021/07/31 05:59:23;;;;;;;6.50;3.27;;;;;;;;;;4980557;28;20453;-68
2021/07/31 06:01:49;;;;;;;4.43;3.10;;;;;;;;;;4976518;28;20453;-68
2021/07/31 06:04:15;;;;;;;4.50;3.33;;;;;;;;;;5004784;28;20575;-68
2021/07/31 06:06:41;;;;;;;5.17;3.73;;;;;;;;;;4996411;28;20913;-68
2021/07/31 06:09:07;;;;;;;5.23;3.43;;;;;;;;;;4983544;28;20445;-68
2021/07/31 06:11:33;;;;;;;10.57;3.87;;;;;;;;;;4976722;28;20406;-68
2021/07/31 06:13:59;;;;;;;5.10;3.63;;;;;;;;;;4986683;28;20428;-68
2021/07/31 06:16:27;;;;;;;5.37;3.67;;;;;;;;;;4996059;28;20763;-68
2021/07/31 06:18:53;;;;;;;4.60;3.47;;;;;;;;;;4993801;28;20464;-68
2021/07/31 06:21:19;;;;;;;3.47;2.93;;;;;;;;;;4995796;28;20898;-68
2021/07/31 06:23:45;;;;;;;6.17;3.60;;;;;;;;;;4988884;28;20464;-68
2021/07/31 06:26:12;;;;;;;6.40;3.57;;;;;;;;;;4976158;28;20918;-68
2021/07/31 06:28:38;;;;;;;4.40;3.70;;;;;;;;;;4983361;28;20448;-68
2021/07/31 06:31:05;;;;;;;7.63;3.63;;;;;;;;;;4995699;28;20405;-68
2021/07/31 06:33:32;;;;;;;5.80;3.63;;;;;;;;;;4994996;28;20502;-69
2021/07/31 06:35:58;;;;;;;4.20;3.40;;;;;;;;;;4995482;28;20432;-68
2021/07/31 06:38:24;;;;;;;4.53;3.10;;;;;;;;;;4989399;28;20455;-68
2021/07/31 06:40:50;;;;;;;5.33;3.87;;;;;;;;;;4976285;28;20853;-68
2021/07/31 06:43:16;;;;;;;4.70;3.70;;;;;;;;;;4979568;28;20550;-68
2021/07/31 06:45:42;;;;;;;3.70;2.80;;;;;;;;;;4996167;28;20396;-68
2021/07/31 06:48:08;;;;;;;4.30;3.70;;;;;;;;;;4994133;28;20483;-69
2021/07/31 06:50:34;;;;;;;5.13;3.60;;;;;;;;;;4995096;28;20408;-68
2021/07/31 06:53:00;;;;;;;6.33;4.40;;;;;;;;;;4993906;28;20401;-69
2021/07/31 06:55:26;;;;;;;5.60;4.23;;;;;;;;;;4995305;28;20826;-68
2021/07/31 06:57:52;;;;;;;4.33;3.80;;;;;;;;;;4994023;28;20436;-69
2021/07/31 07:00:18;;;;;;;4.83;3.80;;;;;;;;;;4990754;28;20487;-68
2021/07/31 07:02:44;;;;;;;6.90;4.77;;;;;;;;;;4994720;28;20455;-68
2021/07/31 07:05:10;;;;;;;6.80;4.20;;;;;;;;;;4993671;28;20428;-68
2021/07/31 07:07:37;;;;;;;4.40;3.20;;;;;;;;;;4994595;28;20404;-68
2021/07/31 07:10:03;;;;;;;5.23;3.47;;;;;;;;;;4993585;28;20555;-68
2021/07/31 07:12:29;;;;;;;6.00;3.53;;;;;;;;;;4993639;28;20411;-69
2021/07/31 07:14:55;;;;;;;7.80;3.43;;;;;;;;;;4977625;28;20935;-69
2021/07/31 07:17:21;;;;;;;5.43;3.90;;;;;;;;;;4975294;28;20806;-69
2021/07/31 07:19:47;;;;;;;5.50;4.40;;;;;;;;;;4989190;28;20863;-69
2021/07/31 07:22:13;;;;;;;4.47;4.00;;;;;;;;;;4994128;28;20980;-69
2021/07/31 07:24:39;;;;;;;6.30;3.47;;;;;;;;;;4993150;28;20508;-69
2021/07/31 07:27:05;;;;;;;5.87;3.97;;;;;;;;;;4994492;28;20436;-69
2021/07/31 07:29:32;;;;;;;5.10;4.13;;;;;;;;;;4981208;28;20512;-68
2021/07/31 07:31:58;;;;;;;6.20;4.50;;;;;;;;;;4975001;28;20418;-69
2021/07/31 07:34:24;;;;;;;4.23;3.73;;;;;;;;;;4981797;28;20517;-69
2021/07/31 07:36:50;;;;;;;5.63;3.90;;;;;;;;;;4974713;28;20401;-68
2021/07/31 07:39:16;;;;;;;8.83;4.20;;;;;;;;;;4984209;28;20456;-68
2021/07/31 07:41:42;;;;;;;5.13;3.90;;;;;;;;;;4994041;28;20416;-68
2021/07/31 07:44:08;;;;;;;8.00;4.43;;;;;;;;;;4992525;28;20424;-69
2021/07/31 07:46:34;;;;;;;5.83;3.60;;;;;;;;;;4994521;28;20419;-68
2021/07/31 07:49:00;;;;;;;4.80;4.27;;;;;;;;;;4993319;28;20526;-68
2021/07/31 07:51:26;;;;;;;5.60;3.93;;;;;;;;;;4994285;28;20407;-68
2021/07/31 07:53:52;;;;;;;9.07;5.57;;;;;;;;;;4993108;28;20424;-68
2021/07/31 07:56:18;;;;;;;7.20;4.00;;;;;;;;;;4994026;28;20538;-69
2021/07/31 07:58:44;;;;;;;5.77;4.00;;;;;;;;;;4992219;28;20448;-68
2021/07/31 08:01:11;;;;;;;5.73;4.17;;;;;;;;;;4994009;28;20423;-68
2021/07/31 08:03:37;;;;;;;7.90;3.60;;;;;;;;;;4992757;28;20929;-69
2021/07/31 08:06:03;;;;;;;6.83;4.20;;;;;;;;;;4993835;28;20412;-69
2021/07/31 08:08:29;;;;;;;5.57;3.70;;;;;;;;;;4991079;28;21007;-69
2021/07/31 08:10:55;;;;;;;5.43;3.60;;;;;;;;;;4994034;28;20400;-69
2021/07/31 08:13:21;;;;;;;5.60;3.60;;;;;;;;;;4992522;28;20412;-69
2021/07/31 08:15:47;;;;;;;4.13;3.60;;;;;;;;;;4974228;28;20441;-69
2021/07/31 08:18:13;;;;;;;4.00;3.33;;;;;;;;;;4974142;28;20440;-69
2021/07/31 08:20:39;;;;;;;7.77;4.00;;;;;;;;;;4993468;28;20420;-69
2021/07/31 08:23:05;;;;;;;4.17;3.43;;;;;;;;;;4993711;28;20507;-68
2021/07/31 08:25:31;;;;;;;4.67;3.80;;;;;;;;;;4991143;28;20443;-69
2021/07/31 08:27:57;;;;;;;3.57;3.20;;;;;;;;;;4993660;28;20494;-69
2021/07/31 08:30:23;;;;;;;6.07;3.70;;;;;;;;;;4992654;28;20494;-69
2021/07/31 08:32:49;;;;;;;3.53;3.00;;;;;;;;;;4993444;28;20412;-69
2021/07/31 08:35:15;;;;;;;4.87;4.10;;;;;;;;;;4992121;28;20430;-69
2021/07/31 08:37:41;;;;;;;7.43;3.50;;;;;;;;;;4993711;28;20495;-68
2021/07/31 08:40:09;;;;;;;5.33;3.70;;;;;;;;;;4992227;28;20447;-68
2021/07/31 08:42:36;;;;;;;8.87;4.70;;;;;;;;;;4994768;28;20806;-69
2021/07/31 08:45:02;;;;;;;5.37;4.13;;;;;;;;;;4995707;28;20414;-69
2021/07/31 08:47:29;;;;;;;4.83;3.57;;;;;;;;;;4997174;28;20503;-69
2021/07/31 08:49:55;;;;;;;4.90;4.03;;;;;;;;;;4996194;28;20440;-69
2021/07/31 08:52:23;;;;;;;4.77;3.50;;;;;;;;;;4996111;28;20463;-69
2021/07/31 08:54:49;;;;;;;4.60;3.23;;;;;;;;;;5004608;28;20455;-68
2021/07/31 08:57:15;;;;;;;5.83;3.30;;;;;;;;;;4977462;28;20437;-69
2021/07/31 08:59:42;;;;;;;9.60;3.60;;;;;;;;;;4982640;28;20501;-69
2021/07/31 09:02:08;;;;;;;4.47;2.97;;;;;;;;;;4996680;28;20569;-69
2021/07/31 09:04:34;;;;;;;4.30;2.93;;;;;;;;;;4995886;28;20824;-69
2021/07/31 09:07:12;;;;;;;4.90;2.60;;;;;;;;;;4997031;28;20451;-69
2021/07/31 09:09:38;;;;;;;4.10;2.93;;;;;;;;;;4995344;28;20440;-69
2021/07/31 09:12:05;;;;;;;5.70;3.00;;;;;;;;;;4996219;28;20502;-69
2021/07/31 09:14:32;;;;;;;3.90;2.77;;;;;;;;;;4996924;28;20400;-69
2021/07/31 09:16:58;;;;;;;4.10;2.60;;;;;;;;;;4994477;28;20881;-68
2021/07/31 09:19:26;;;;;;;4.40;2.57;;;;;;;;;;4996623;28;20447;-68
2021/07/31 09:22:01;;;;;;;3.53;2.70;;;;;;;;;;4979181;28;20428;-68
2021/07/31 09:24:27;;;;;;;3.07;2.37;;;;;;;;;;4977248;28;20396;-69
2021/07/31 09:26:55;;;;;;;3.60;2.60;;;;;;;;;;4977078;28;20430;-69
2021/07/31 09:29:35;;;;;;;3.00;2.10;;;;;;;;;;4977338;28;20421;-68
2021/07/31 09:32:02;;;;;;;5.77;2.10;;;;;;;;;;4994310;28;20423;-69
2021/07/31 09:34:31;;;;;;;3.33;2.47;;;;;;;;;;4996274;28;20494;-68
2021/07/31 09:37:07;;;;;;;3.47;2.60;;;;;;;;;;4994260;28;20482;-67
2021/07/31 09:39:52;;;;;;;4.67;3.20;;;;;;;;;;4995829;28;20490;-65
2021/07/31 09:42:27;;;;;;;14.63;2.97;;;;;;;;;;4993043;28;20824;-66
2021/07/31 09:44:53;;;;;;;3.30;2.07;;;;;;;;;;4976936;28;20910;-68
2021/07/31 09:47:19;;;;;;;4.23;2.47;;;;;;;;;;4993844;28;20428;-67
2021/07/31 09:49:46;;;;;;;3.80;2.70;;;;;;;;;;4995913;28;20801;-63
2021/07/31 09:52:19;;;;;;;7.00;2.67;;;;;;;;;;4994890;28;20840;-63
2021/07/31 09:54:46;;;;;;;5.20;3.27;;;;;;;;;;4994134;28;20435;-63
2021/07/31 09:57:12;;;;;;;4.30;3.10;;;;;;;;;;4994757;28;20466;-64
2021/07/31 09:59:44;;;;;;;5.10;3.07;;;;;;;;;;4995803;28;20440;-63
2021/07/31 10:02:13;;;;;;;6.20;2.80;;;;;;;;;;4993835;28;20467;-63
2021/07/31 10:04:40;;;;;;;6.10;3.53;;;;;;;;;;4995644;28;20423;-64
2021/07/31 10:07:06;;;;;;;5.03;3.63;;;;;;;;;;4994876;28;20499;-68
2021/07/31 10:09:33;;;;;;;4.10;3.37;;;;;;;;;;4995453;28;20432;-67
2021/07/31 10:11:59;;;;;;;7.63;4.20;;;;;;;;;;4993422;28;20432;-66
2021/07/31 10:14:25;;;;;;;5.70;4.00;;;;;;;;;;4995185;28;20423;-65
2021/07/31 10:16:52;;;;;;;6.03;3.23;;;;;;;;;;4994850;28;20428;-66
2021/07/31 10:19:18;;;;;;;6.57;4.10;;;;;;;;;;4994791;28;20513;-65
2021/07/31 10:21:44;;;;;;;4.73;3.23;;;;;;;;;;4993881;28;20424;-63
2021/07/31 10:24:10;;;;;;;4.03;3.33;;;;;;;;;;4991825;28;20431;-64
2021/07/31 10:26:36;;;;;;;5.40;2.77;;;;;;;;;;4994472;28;20428;-63
2021/07/31 10:29:21;;;;;;;5.57;3.70;;;;;;;;;;4995376;28;20424;-64
2021/07/31 10:31:47;;;;;;;3.73;3.07;;;;;;;;;;4994517;28;20426;-68
2021/07/31 10:34:33;;;;;;;5.87;3.80;;;;;;;;;;4995524;28;20396;-62
2021/07/31 10:37:01;;;;;;;3.90;3.03;;;;;;;;;;4992167;28;20494;-63
2021/07/31 10:39:27;;;;;;;5.10;3.73;;;;;;;;;;4994340;28;20506;-62
2021/07/31 10:41:53;;;;;;;6.90;3.30;;;;;;;;;;4994331;28;20413;-62
2021/07/31 10:44:19;;;;;;;9.70;3.03;;;;;;;;;;4994234;28;20424;-62
2021/07/31 10:46:45;;;;;;;4.17;3.10;;;;;;;;;;4994042;28;20940;-67
2021/07/31 10:49:49;;;;;;;4.87;3.13;;;;;;;;;;4995433;28;20442;-66
2021/07/31 10:52:48;;;;;;;4.20;2.90;;;;;;;;;;4992144;28;20509;-65
2021/07/31 10:55:14;;;;;;;4.37;3.10;;;;;;;;;;4944825;28;20778;-67
2021/07/31 10:57:55;;;;;;;3.80;3.03;;;;;;;;;;4984364;28;20518;-63
2021/07/31 11:00:25;;;;;;;4.23;2.67;;;;;;;;;;5008759;28;20506;-65
2021/07/31 11:02:51;;;;;;;3.87;3.03;;;;;;;;;;4995541;28;20833;-67
2021/07/31 11:05:17;;;;;;;10.13;4.03;;;;;;;;;;4993715;28;20487;-64
2021/07/31 11:08:00;;;;;;;6.77;3.43;;;;;;;;;;4991954;28;20439;-65
2021/07/31 11:10:40;;;;;;;4.23;3.70;;;;;;;;;;4975928;28;20424;-65
2021/07/31 11:13:06;;;;;;;6.23;3.40;;;;;;;;;;4994664;28;20503;-64
2021/07/31 11:15:32;;;;;;;4.73;3.47;;;;;;;;;;4993566;28;20408;-64
2021/07/31 11:17:59;;;;;;;4.83;3.57;;;;;;;;;;4993281;28;20450;-65
2021/07/31 11:20:30;;;;;;;5.00;3.23;;;;;;;;;;4992370;28;20456;-68
2021/07/31 11:22:57;;;;;;;4.77;3.03;;;;;;;;;;4994178;28;20487;-64
2021/07/31 11:25:24;;;;;;;4.07;2.93;;;;;;;;;;4993105;28;20412;-65
2021/07/31 11:27:54;;;;;;;5.70;2.80;;;;;;;;;;4993292;28;20723;-66
2021/07/31 11:30:20;;;;;;;3.80;3.13;;;;;;;;;;4992815;28;20857;-68
2021/07/31 11:32:46;;;;;;;5.87;3.17;;;;;;;;;;4991736;28;20794;-63
2021/07/31 11:35:25;;;;;;;4.47;2.67;;;;;;;;;;4992574;28;20503;-69
2021/07/31 11:37:51;;;;;;;5.00;3.37;;;;;;;;;;4994386;28;20412;-67
2021/07/31 11:40:17;;;;;;;4.67;3.07;;;;;;;;;;4989086;28;20448;-66
2021/07/31 11:42:43;;;;;;;6.13;2.70;;;;;;;;;;4992935;28;20467;-66
2021/07/31 11:45:11;;;;;;;3.80;3.23;;;;;;;;;;4994036;28;20940;-64
2021/07/31 11:47:39;;;;;;;4.57;2.60;;;;;;;;;;4993062;28;20478;-65
2021/07/31 11:50:06;;;;;;;3.60;2.40;;;;;;;;;;4992906;28;20420;-66
2021/07/31 11:52:32;;;;;;;4.97;3.03;;;;;;;;;;4990944;28;20444;-65
2021/07/31 11:54:58;;;;;;;4.40;2.83;;;;;;;;;;4993657;28;20439;-64
2021/07/31 11:57:24;;;;;;;5.37;3.00;;;;;;;;;;4993335;28;20980;-66
2021/07/31 11:59:50;;;;;;;4.23;2.60;;;;;;;;;;4994105;28;20527;-67
2021/07/31 12:02:33;;;;;;;3.37;2.60;;;;;;;;;;4992037;28;20507;-66
2021/07/31 12:04:59;;;;;;;5.33;3.00;;;;;;;;;;4994207;28;20410;-67
2021/07/31 12:07:25;;;;;;;6.10;2.83;;;;;;;;;;4991924;28;20842;-66
2021/07/31 12:09:57;;;;;;;3.40;2.70;;;;;;;;;;4993786;28;20420;-66
2021/07/31 12:12:30;;;;;;;3.97;2.50;;;;;;;;;;4993193;28;20967;-67
2021/07/31 12:15:11;;;;;;;4.90;2.53;;;;;;;;;;4989930;28;20436;-65
2021/07/31 12:17:38;;;;;;;3.23;2.57;;;;;;;;;;4983415;28;20480;-64
2021/07/31 12:20:06;;;;;;;5.53;2.80;;;;;;;;;;4984936;28;20459;-64
2021/07/31 12:22:34;;;;;;;6.20;2.83;;;;;;;;;;4993601;28;20467;-63
2021/07/31 12:25:08;;;;;;;4.13;2.67;;;;;;;;;;4996649;28;20424;-62
2021/07/31 12:27:52;;;;;;;4.33;2.13;;;;;;;;;;4995740;28;20435;-66
2021/07/31 12:30:39;;;;;;;3.87;2.97;;;;;;;;;;4994761;28;20420;-64
2021/07/31 12:33:08;;;;;;;3.70;2.77;;;;;;;;;;4994537;28;20420;-64
2021/07/31 12:35:43;;;;;;;3.80;2.73;;;;;;;;;;4994849;28;20424;-65
2021/07/31 12:38:19;;;;;;;3.83;2.20;;;;;;;;;;4993203;28;20435;-63
2021/07/31 12:40:46;;;;;;;3.60;2.13;;;;;;;;;;4992883;28;20830;-63
2021/07/31 12:43:14;;;;;;;3.47;2.43;;;;;;;;;;4993555;28;20459;-64
2021/07/31 12:45:40;;;;;;;4.30;2.40;;;;;;;;;;4993960;28;20523;-66
2021/07/31 12:48:07;;;;;;;3.70;2.87;;;;;;;;;;4991819;28;20432;-63
2021/07/31 12:50:33;;;;;;;3.23;2.40;;;;;;;;;;4981507;28;20455;-63
2021/07/31 12:53:01;;;;;;;3.63;2.50;;;;;;;;;;4989742;28;20771;-61
2021/07/31 12:55:28;;;;;;;3.60;2.77;;;;;;;;;;4993605;28;20410;-62
2021/07/31 12:57:54;;;;;;;3.83;2.90;;;;;;;;;;4992346;28;20455;-62
2021/07/31 13:00:20;;;;;;;3.37;2.47;;;;;;;;;;4993321;28;20420;-64
2021/07/31 13:02:47;;;;;;;7.43;2.33;;;;;;;;;;4993491;28;20471;-62
2021/07/31 13:05:13;;;;;;;7.10;3.27;;;;;;;;;;4993416;28;20404;-66
2021/07/31 13:07:39;;;;;;;3.67;2.50;;;;;;;;;;4974807;28;20456;-63
2021/07/31 13:10:06;;;;;;;4.13;2.93;;;;;;;;;;4984447;28;20475;-66
2021/07/31 13:12:32;;;;;;;3.47;2.60;;;;;;;;;;4991441;28;20455;-62
2021/07/31 13:14:58;;;;;;;4.40;2.40;;;;;;;;;;4993130;28;20482;-62
2021/07/31 13:17:24;;;;;;;2.63;1.93;;;;;;;;;;4990966;28;20515;-66
2021/07/31 13:19:50;;;;;;;3.43;2.70;;;;;;;;;;4990642;28;20463;-62
2021/07/31 13:22:16;;;;;;;3.83;2.83;;;;;;;;;;4992613;28;20498;-62
2021/07/31 13:24:43;;;;;;;4.30;2.87;;;;;;;;;;4993363;28;20408;-62
2021/07/31 13:27:10;;;;;;;4.00;2.80;;;;;;;;;;4989184;28;20965;-67
2021/07/31 13:29:36;;;;;;;3.53;2.53;;;;;;;;;;4995907;28;20836;-65
2021/07/31 13:32:02;;;;;;;3.47;2.33;;;;;;;;;;4996083;28;20436;-65
2021/07/31 13:34:28;;;;;;;4.60;2.63;;;;;;;;;;4996694;28;20404;-65
2021/07/31 13:36:58;;;;;;;6.83;2.83;;;;;;;;;;4995794;28;20424;-64
2021/07/31 13:39:25;;;;;;;4.43;3.20;;;;;;;;;;4996625;28;20420;-64
2021/07/31 13:41:53;;;;;;;3.90;2.93;;;;;;;;;;4995572;28;20436;-64
2021/07/31 13:44:20;;;;;;;5.37;3.20;;;;;;;;;;4985673;28;20451;-65
2021/07/31 13:46:46;;;;;;;3.53;2.70;;;;;;;;;;4994650;28;20488;-66
2021/07/31 13:49:13;;;;;;;3.73;2.87;;;;;;;;;;4996322;28;20416;-66
2021/07/31 13:51:39;;;;;;;4.93;2.63;;;;;;;;;;4995687;28;20431;-65
2021/07/31 13:54:05;;;;;;;3.80;2.37;;;;;;;;;;4996440;28;20443;-65
2021/07/31 13:56:35;;;;;;;4.00;2.67;;;;;;;;;;5016710;28;20451;-70
2021/07/31 13:59:05;;;;;;;4.30;2.80;;;;;;;;;;4996906;28;20867;-68
2021/07/31 14:01:32;;;;;;;3.70;2.73;;;;;;;;;;4994984;28;20424;-69
2021/07/31 14:03:58;;;;;;;3.80;2.23;;;;;;;;;;4995974;28;20455;-66
2021/07/31 14:06:27;;;;;;;4.73;3.47;;;;;;;;;;4988918;28;20437;-67
2021/07/31 14:08:54;;;;;;;3.30;2.30;;;;;;;;;;4995839;28;20471;-67
2021/07/31 14:11:20;;;;;;;3.37;2.50;;;;;;;;;;4994837;28;20769;-68
2021/07/31 14:13:46;;;;;;;3.70;2.23;;;;;;;;;;4995887;28;20886;-67
2021/07/31 14:16:12;;;;;;;4.90;2.27;;;;;;;;;;5011124;28;20420;-68
2021/07/31 14:18:38;;;;;;;3.43;2.30;;;;;;;;;;4995489;28;20460;-66
2021/07/31 14:21:07;;;;;;;5.47;2.80;;;;;;;;;;4994570;28;20408;-66
2021/07/31 14:23:34;;;;;;;2.80;2.20;;;;;;;;;;4995695;28;20464;-66
2021/07/31 14:26:00;;;;;;;6.67;3.00;;;;;;;;;;4995919;28;20409;-66
2021/07/31 14:28:26;;;;;;;5.20;2.40;;;;;;;;;;4995343;28;20959;-65
2021/07/31 14:30:52;;;;;;;3.63;2.47;;;;;;;;;;4995661;28;20431;-67
2021/07/31 14:33:19;;;;;;;4.37;2.60;;;;;;;;;;4995200;28;20443;-67
2021/07/31 14:35:45;;;;;;;4.67;2.80;;;;;;;;;;4995399;28;20483;-67
2021/07/31 14:38:11;;;;;;;5.47;2.90;;;;;;;;;;4989907;28;20852;-67
2021/07/31 14:40:37;;;;;;;3.47;2.20;;;;;;;;;;4981679;28;20946;-67
2021/07/31 14:43:03;;;;;;;3.53;2.80;;;;;;;;;;4988712;28;20515;-67